Time;durP1;ratioP1;P1;durP2;ratioP2;P2;SDS_P1;SDS_P2;PMS_P1;PMS_P2;Temp;Humidity;BMP_temperature;BMP_pressure;BME280_temperature;BME280_humidity;BME280_pressure;Samples;Min_cycle;Max_cycle;Signal;HPM_P1;HPM_P2
2023/08/18 00:04:24;;;;;;;16.35;11.75;;;;;;;17.67;100.00;101544.44;5093267;28;20288;-76
2023/08/18 00:06:49;;;;;;;14.02;12.55;;;;;;;17.67;100.00;101543.59;5074699;28;20347;-77
2023/08/18 00:12:36;;;;;;;19.83;11.95;;;;;;;17.70;100.00;101540.44;5093225;28;20280;-76
2023/08/18 00:18:23;;;;;;;15.85;12.25;;;;;;;17.68;100.00;101532.56;5079993;28;20131;-76
2023/08/18 00:24:10;;;;;;;14.57;12.45;;;;;;;17.64;100.00;101532.19;5093277;28;20058;-75
2023/08/18 00:29:57;;;;;;;15.90;13.02;;;;;;;17.63;100.00;101529.72;5093081;28;20662;-75
2023/08/18 00:35:44;;;;;;;13.10;11.30;;;;;;;17.56;100.00;101524.47;5092723;28;20318;-76
2023/08/18 00:41:30;;;;;;;15.27;12.77;;;;;;;17.56;100.00;101539.88;5092671;28;20273;-77
2023/08/18 00:47:18;;;;;;;16.48;12.55;;;;;;;17.53;100.00;101535.78;5092933;28;20191;-76
2023/08/18 00:49:43;;;;;;;15.32;12.38;;;;;;;17.52;100.00;101528.72;5092434;28;20016;-75
2023/08/18 00:52:09;;;;;;;15.38;12.15;;;;;;;17.54;100.00;101525.78;5074178;28;20476;-75
2023/08/18 00:57:57;;;;;;;16.73;12.82;;;;;;;17.49;100.00;101522.97;5092688;28;20100;-77
2023/08/18 01:03:44;;;;;;;14.70;11.60;;;;;;;17.40;100.00;101522.56;5092631;28;20444;-76
2023/08/18 01:09:31;;;;;;;16.27;11.93;;;;;;;17.34;100.00;101520.81;5092552;28;20055;-75
2023/08/18 01:15:25;;;;;;;15.20;12.40;;;;;;;17.31;100.00;101524.00;5092184;28;20043;-76
2023/08/18 01:21:13;;;;;;;16.27;12.65;;;;;;;17.22;100.00;101517.34;5077111;28;20135;-76
2023/08/18 01:23:39;;;;;;;15.25;12.43;;;;;;;17.20;100.00;101522.19;5091945;28;20110;-77
2023/08/18 01:26:05;;;;;;;15.98;12.25;;;;;;;17.18;100.00;101519.72;5073326;28;20044;-74
2023/08/18 01:28:31;;;;;;;13.25;11.80;;;;;;;17.19;100.00;101512.44;5091751;28;20558;-75
2023/08/18 01:30:57;;;;;;;14.68;11.27;;;;;;;17.17;100.00;101503.75;5091319;28;20111;-77
2023/08/18 01:36:45;;;;;;;15.55;11.45;;;;;;;17.19;100.00;101496.22;5091960;28;20437;-76
2023/08/18 01:39:13;;;;;;;16.25;11.90;;;;;;;17.18;100.00;101494.56;5073094;28;20036;-76
2023/08/18 01:45:02;;;;;;;15.50;12.07;;;;;;;17.15;100.00;101492.34;5091831;28;20093;-76
2023/08/18 01:50:49;;;;;;;15.02;11.60;;;;;;;17.13;100.00;101487.19;5080111;28;20085;-76
2023/08/18 01:56:36;;;;;;;16.77;11.98;;;;;;;17.04;100.00;101489.44;5091492;28;20308;-76
2023/08/18 01:59:03;;;;;;;15.77;12.10;;;;;;;17.03;100.00;101476.16;5091526;28;20028;-75
2023/08/18 02:01:29;;;;;;;15.27;11.50;;;;;;;17.08;100.00;101479.00;5073200;28;21025;-76
2023/08/18 02:03:54;;;;;;;14.33;12.13;;;;;;;17.08;100.00;101475.47;5090627;28;20040;-77
2023/08/18 02:09:40;;;;;;;15.98;12.07;;;;;;;17.09;100.00;101485.22;5091499;28;21257;-76
2023/08/18 02:12:06;;;;;;;17.40;11.90;;;;;;;17.13;100.00;101483.66;5091421;28;20032;-76
2023/08/18 02:14:31;;;;;;;15.27;12.98;;;;;;;17.10;100.00;101474.16;5073147;28;20278;-77
2023/08/18 02:16:58;;;;;;;14.07;11.85;;;;;;;17.17;100.00;101482.13;5090459;28;20044;-75
2023/08/18 02:19:23;;;;;;;14.95;11.57;;;;;;;17.14;100.00;101466.38;5091351;28;20114;-77
2023/08/18 02:21:48;;;;;;;16.35;12.10;;;;;;;17.15;100.00;101468.03;5091104;28;20173;-76
2023/08/18 02:24:14;;;;;;;13.90;12.20;;;;;;;17.14;100.00;101472.63;5090407;28;20048;-76
2023/08/18 02:30:01;;;;;;;13.80;12.20;;;;;;;17.08;100.00;101478.19;5091174;28;20115;-76
2023/08/18 02:32:26;;;;;;;14.93;11.43;;;;;;;17.06;100.00;101472.16;5090747;28;20111;-76
2023/08/18 02:38:15;;;;;;;16.23;12.38;;;;;;;16.92;100.00;101450.84;5091589;28;20137;-76
2023/08/18 02:44:03;;;;;;;15.70;12.90;;;;;;;17.02;100.00;101461.84;5091239;28;20051;-77
2023/08/18 02:49:51;;;;;;;16.27;13.27;;;;;;;16.94;100.00;101456.81;5094268;28;20128;-77
2023/08/18 02:52:16;;;;;;;17.23;14.43;;;;;;;16.95;100.00;101471.97;5094240;28;20031;-77
2023/08/18 02:54:41;;;;;;;19.33;14.27;;;;;;;16.89;100.00;101469.41;5093628;28;20353;-76
2023/08/18 03:04:07;;;;;;;15.25;12.57;;;;;;;16.96;100.00;101454.69;5094118;28;20047;-77
2023/08/18 03:06:32;;;;;;;16.03;12.90;;;;;;;16.94;100.00;101448.72;5075897;28;20048;-76
2023/08/18 03:12:19;;;;;;;17.52;14.63;;;;;;;16.86;100.00;101451.00;5094283;28;20116;-74
2023/08/18 03:14:44;;;;;;;17.20;13.27;;;;;;;16.84;100.00;101453.13;5092810;28;20403;-75
2023/08/18 03:17:09;;;;;;;20.57;14.37;;;;;;;16.80;100.00;101443.88;5075644;28;20440;-76
2023/08/18 03:19:35;;;;;;;18.55;13.77;;;;;;;16.77;100.00;101449.72;5093508;28;20746;-76
2023/08/18 03:22:00;;;;;;;16.90;14.20;;;;;;;16.76;100.00;101465.09;5093458;28;20066;-75
2023/08/18 03:24:25;;;;;;;19.60;14.23;;;;;;;16.76;100.00;101462.41;5093766;28;20678;-77
2023/08/18 03:26:50;;;;;;;17.37;14.03;;;;;;;16.76;100.00;101456.19;5075001;28;20275;-76
2023/08/18 03:40:07;;;;;;;17.75;14.38;;;;;;;16.69;100.00;101450.91;5093808;28;20400;-75
2023/08/18 03:42:33;;;;;;;18.08;14.63;;;;;;;16.57;100.00;101440.13;5093424;28;20544;-75
2023/08/18 03:48:19;;;;;;;15.70;13.82;;;;;;;16.54;100.00;101453.28;5093793;28;20093;-75
2023/08/18 03:50:45;;;;;;;22.17;14.77;;;;;;;16.47;100.00;101445.31;5093444;28;20551;-77
2023/08/18 03:53:10;;;;;;;20.02;15.02;;;;;;;16.48;100.00;101446.97;5092608;28;20087;-75
2023/08/18 03:58:57;;;;;;;18.75;15.00;;;;;;;16.49;100.00;101447.78;5080490;28;20039;-77
2023/08/18 04:01:24;;;;;;;18.17;14.27;;;;;;;16.48;100.00;101455.06;5093193;28;20028;-76
2023/08/18 04:03:49;;;;;;;20.60;14.18;;;;;;;16.46;100.00;101445.53;5093286;28;20428;-76
2023/08/18 04:06:16;;;;;;;20.30;15.30;;;;;;;16.47;100.00;101447.19;5092377;28;20495;-77
2023/08/18 04:12:03;;;;;;;17.30;13.90;;;;;;;16.43;100.00;101447.66;5093482;28;20385;-76
2023/08/18 04:14:28;;;;;;;19.25;14.77;;;;;;;16.40;100.00;101453.53;5093000;28;20025;-76
2023/08/18 04:16:53;;;;;;;22.33;15.97;;;;;;;16.37;100.00;101445.09;5092916;28;20032;-77
2023/08/18 04:19:18;;;;;;;20.50;15.20;;;;;;;16.36;100.00;101448.84;5092016;28;20273;-76
2023/08/18 04:21:44;;;;;;;20.77;15.32;;;;;;;16.34;100.00;101450.97;5074857;28;20270;-75
2023/08/18 04:27:30;;;;;;;20.35;16.00;;;;;;;16.37;100.00;101437.00;5092942;28;20342;-74
2023/08/18 04:29:56;;;;;;;21.27;15.77;;;;;;;16.35;100.00;101436.41;5092766;28;20444;-76
2023/08/18 04:32:21;;;;;;;23.27;14.87;;;;;;;16.34;100.00;101437.47;5092000;28;20281;-77
2023/08/18 04:34:46;;;;;;;23.23;16.00;;;;;;;16.28;100.00;101436.56;5092805;28;20403;-76
2023/08/18 04:40:33;;;;;;;20.65;15.57;;;;;;;16.28;100.00;101430.34;5092545;28;20289;-76
2023/08/18 04:46:20;;;;;;;23.02;15.27;;;;;;;16.29;100.00;101429.28;5080693;28;20376;-77
2023/08/18 04:48:45;;;;;;;26.00;16.53;;;;;;;16.24;100.00;101437.28;5092489;28;20111;-76
2023/08/18 04:51:10;;;;;;;26.13;16.63;;;;;;;16.25;100.00;101445.13;5091697;28;20282;-76
2023/08/18 04:53:36;;;;;;;26.17;17.75;;;;;;;16.25;100.00;101438.91;5092477;28;20449;-76
2023/08/18 04:56:03;;;;;;;24.75;15.93;;;;;;;16.27;100.00;101445.72;5092397;28;20471;-75
2023/08/18 05:01:51;;;;;;;25.77;16.05;;;;;;;16.30;100.00;101445.25;5078037;28;20472;-76
2023/08/18 05:04:17;;;;;;;24.50;15.93;;;;;;;16.30;100.00;101442.53;5073470;28;20032;-76
2023/08/18 05:06:42;;;;;;;24.98;17.55;;;;;;;16.35;100.00;101449.91;5092104;28;20085;-75
2023/08/18 05:12:29;;;;;;;25.35;16.55;;;;;;;16.41;100.00;101443.56;5092294;28;20043;-76
2023/08/18 05:14:54;;;;;;;23.97;17.07;;;;;;;16.36;100.00;101436.19;5092102;28;20501;-76
2023/08/18 05:17:19;;;;;;;25.33;16.63;;;;;;;16.43;100.00;101430.66;5073187;28;20302;-76
2023/08/18 05:23:07;;;;;;;26.35;17.42;;;;;;;16.47;100.00;101433.69;5092073;28;20315;-76
2023/08/18 05:25:32;;;;;;;26.07;18.00;;;;;;;16.45;100.00;101422.31;5092081;28;20028;-76
2023/08/18 05:34:55;;;;;;;23.45;15.32;;;;;;;16.51;100.00;101422.19;5092249;28;20035;-77
2023/08/18 05:37:21;;;;;;;29.25;17.80;;;;;;;16.48;100.00;101422.69;5090940;28;20043;-76
2023/08/18 05:39:47;;;;;;;27.42;18.90;;;;;;;16.49;100.00;101426.19;5091745;28;20371;-76
2023/08/18 05:42:12;;;;;;;27.50;18.10;;;;;;;16.55;100.00;101434.16;5091180;28;20040;-76
2023/08/18 05:47:59;;;;;;;26.83;19.90;;;;;;;16.62;100.00;101429.44;5092129;28;20170;-76
2023/08/18 05:53:46;;;;;;;27.88;19.63;;;;;;;16.77;100.00;101433.50;5078635;28;20780;-77
2023/08/18 05:56:11;;;;;;;28.42;20.08;;;;;;;16.87;100.00;101439.13;5090640;28;20028;-77
2023/08/18 06:01:58;;;;;;;26.13;18.52;;;;;;;16.80;100.00;101439.28;5091412;28;20122;-77
2023/08/18 06:07:45;;;;;;;26.30;18.52;;;;;;;16.66;100.00;101427.91;5091418;28;20043;-76
2023/08/18 06:13:32;;;;;;;28.77;19.85;;;;;;;16.70;100.00;101447.16;5091537;28;20067;-76
2023/08/18 06:19:19;;;;;;;22.75;15.10;;;;;;;16.78;100.00;101449.50;5091162;28;20281;-76
2023/08/18 06:28:56;;;;;;;27.55;18.50;;;;;;;16.59;100.00;101443.41;5095046;28;20139;-77
2023/08/18 06:34:42;;;;;;;32.78;19.50;;;;;;;16.59;100.00;101434.50;5095089;28;20507;-75
2023/08/18 06:40:29;;;;;;;30.17;20.60;;;;;;;16.58;100.00;101433.69;5094611;28;20034;-75
2023/08/18 06:42:54;;;;;;;29.35;18.75;;;;;;;16.58;100.00;101430.97;5094444;28;20031;-77
2023/08/18 06:45:20;;;;;;;30.53;20.37;;;;;;;16.67;100.00;101434.97;5093617;28;20028;-76
2023/08/18 06:47:45;;;;;;;33.17;20.77;;;;;;;16.77;100.00;101436.22;5076254;28;20282;-76
2023/08/18 06:53:32;;;;;;;30.85;20.05;;;;;;;16.98;100.00;101438.25;5094359;28;20281;-76
2023/08/18 06:59:19;;;;;;;31.65;20.85;;;;;;;17.11;100.00;101437.97;5094565;28;20050;-76
2023/08/18 07:05:06;;;;;;;27.65;19.92;;;;;;;17.19;100.00;101434.03;5094177;28;20653;-75
2023/08/18 07:07:34;;;;;;;30.85;21.27;;;;;;;17.19;100.00;101424.06;5075834;28;20028;-75
2023/08/18 07:10:00;;;;;;;28.45;19.10;;;;;;;17.20;100.00;101424.88;5093365;28;20498;-75
2023/08/18 07:15:51;;;;;;;26.13;18.02;;;;;;;17.14;100.00;101415.03;5094201;28;20585;-76
2023/08/18 07:25:12;;;;;;;31.05;20.42;;;;;;;17.00;100.00;101412.63;5094127;28;20046;-76
2023/08/18 07:31:04;;;;;;;27.73;19.17;;;;;;;17.16;100.00;101419.13;5093902;28;20173;-74
2023/08/18 07:36:52;;;;;;;30.10;19.35;;;;;;;17.34;100.00;101429.72;5093793;28;20073;-75
2023/08/18 07:42:39;;;;;;;36.88;21.80;;;;;;;17.20;100.00;101422.16;5093802;28;20577;-75
2023/08/18 07:48:26;;;;;;;35.75;22.52;;;;;;;17.26;100.00;101421.19;5079764;28;20055;-74
2023/08/18 07:50:52;;;;;;;38.47;22.37;;;;;;;17.27;100.00;101423.66;5075243;28;20028;-75
2023/08/18 07:53:17;;;;;;;34.10;20.90;;;;;;;17.30;100.00;101430.44;5074804;28;20436;-75
2023/08/18 07:59:05;;;;;;;36.13;22.65;;;;;;;17.46;100.00;101434.25;5093652;28;20118;-74
2023/08/18 08:04:52;;;;;;;32.13;22.55;;;;;;;17.57;100.00;101444.16;5093349;28;20416;-75
2023/08/18 08:10:40;;;;;;;33.88;21.52;;;;;;;17.71;100.00;101441.97;5093544;28;20055;-75
2023/08/18 08:16:28;;;;;;;33.22;19.83;;;;;;;17.96;100.00;101436.97;5092935;28;20412;-78
2023/08/18 08:22:19;;;;;;;39.08;23.45;;;;;;;18.09;100.00;101431.19;5093056;28;20038;-77
2023/08/18 08:28:06;;;;;;;37.25;23.48;;;;;;;18.02;100.00;101446.78;5093128;28;20430;-75
2023/08/18 08:33:53;;;;;;;38.40;24.17;;;;;;;18.02;100.00;101441.38;5093255;28;20051;-75
2023/08/18 08:39:41;;;;;;;36.95;23.83;;;;;;;18.17;100.00;101455.13;5092981;28;20066;-75
2023/08/18 08:45:28;;;;;;;31.38;21.48;;;;;;;18.04;100.00;101463.59;5092964;28;20069;-75
2023/08/18 08:51:16;;;;;;;37.50;23.67;;;;;;;18.06;100.00;101466.06;5077004;28;20047;-73
2023/08/18 08:57:04;;;;;;;33.05;22.08;;;;;;;18.22;100.00;101459.81;5092760;28;20061;-74
2023/08/18 09:02:51;;;;;;;31.55;21.13;;;;;;;18.48;100.00;101461.75;5079863;28;20051;-75
2023/08/18 09:08:38;;;;;;;29.25;20.38;;;;;;;18.71;100.00;101468.03;5092553;28;20289;-75
2023/08/18 09:14:26;;;;;;;28.65;19.83;;;;;;;18.80;100.00;101464.66;5091970;28;20311;-75
2023/08/18 09:20:14;;;;;;;33.97;22.52;;;;;;;18.94;100.00;101465.06;5092403;28;20198;-75
2023/08/18 09:26:01;;;;;;;30.45;21.73;;;;;;;19.04;100.00;101450.78;5092482;28;20399;-75
2023/08/18 09:31:48;;;;;;;32.38;22.15;;;;;;;19.13;100.00;101451.97;5076441;28;20127;-75
2023/08/18 09:37:35;;;;;;;28.65;19.55;;;;;;;19.17;100.00;101458.53;5092001;28;20047;-75
2023/08/18 09:43:25;;;;;;;27.33;19.52;;;;;;;18.95;100.00;101436.06;5078993;28;20047;-73
2023/08/18 09:49:19;;;;;;;26.42;18.40;;;;;;;19.33;100.00;101440.50;5092076;28;20078;-75
2023/08/18 09:55:11;;;;;;;30.60;20.70;;;;;;;19.59;100.00;101452.41;5094740;28;20069;-75
2023/08/18 10:00:58;;;;;;;29.33;20.00;;;;;;;19.84;100.00;101447.19;5095760;28;20054;-79
2023/08/18 10:06:46;;;;;;;31.05;21.50;;;;;;;19.66;100.00;101447.56;5095417;28;20089;-78
2023/08/18 10:12:33;;;;;;;35.00;23.45;;;;;;;19.65;100.00;101437.81;5095690;28;20524;-78
2023/08/18 10:18:22;;;;;;;33.33;23.35;;;;;;;19.95;100.00;101431.78;5095133;28;20276;-78
2023/08/18 10:24:11;;;;;;;31.50;23.77;;;;;;;20.18;100.00;101417.78;5094459;28;20061;-76
2023/08/18 10:30:04;;;;;;;29.77;21.50;;;;;;;20.64;100.00;101412.59;5094979;28;20039;-77
2023/08/18 10:35:56;;;;;;;31.52;21.67;;;;;;;21.13;100.00;101415.69;5095058;28;20039;-74
2023/08/18 10:42:03;;;;;;;32.95;23.05;;;;;;;21.16;100.00;101414.34;5080827;28;20127;-76
2023/08/18 10:47:51;;;;;;;29.98;21.92;;;;;;;21.28;100.00;101418.44;5094868;28;20066;-76
2023/08/18 10:53:40;;;;;;;31.45;22.83;;;;;;;21.61;100.00;101406.19;5094487;28;20042;-74
2023/08/18 10:59:27;;;;;;;28.83;22.63;;;;;;;21.96;100.00;101399.03;5094516;28;20404;-77
2023/08/18 11:05:16;;;;;;;30.02;21.85;;;;;;;22.30;100.00;101385.63;5093902;28;20067;-76
2023/08/18 11:11:04;;;;;;;29.15;21.60;;;;;;;22.60;100.00;101381.13;5094582;28;20536;-77
2023/08/18 11:16:51;;;;;;;31.42;23.05;;;;;;;22.62;100.00;101381.66;5094015;28;20085;-77
2023/08/18 11:22:41;;;;;;;28.48;22.00;;;;;;;23.51;100.00;101372.28;5093527;28;20118;-75
2023/08/18 11:28:28;;;;;;;26.95;21.77;;;;;;;23.95;100.00;101365.84;5093475;28;20042;-76
2023/08/18 11:34:16;;;;;;;29.27;22.58;;;;;;;24.09;100.00;101355.84;5093893;28;20051;-77
2023/08/18 11:40:05;;;;;;;29.10;22.58;;;;;;;24.24;100.00;101344.69;5078272;28;20127;-78
2023/08/18 11:45:53;;;;;;;27.50;21.98;;;;;;;23.92;100.00;101345.38;5094060;28;20083;-77
2023/08/18 11:52:00;;;;;;;30.25;23.98;;;;;;;23.29;100.00;101339.19;5080759;28;20479;-77
2023/08/18 11:57:47;;;;;;;30.67;25.17;;;;;;;23.00;100.00;101334.50;5093583;28;20113;-79
2023/08/18 12:03:33;;;;;;;31.98;26.35;;;;;;;23.48;100.00;101329.19;5093288;28;20369;-76
2023/08/18 12:09:21;;;;;;;34.13;25.17;;;;;;;23.83;100.00;101338.13;5077843;28;20046;-77
2023/08/18 12:15:08;;;;;;;29.13;25.10;;;;;;;26.01;100.00;101321.00;5093360;28;20617;-76
2023/08/18 12:20:55;;;;;;;31.85;26.25;;;;;;;26.79;99.45;101319.81;5080118;28;20047;-77
2023/08/18 12:26:42;;;;;;;32.47;26.17;;;;;;;27.29;95.60;101325.19;5092871;28;20089;-77
2023/08/18 12:35:51;;;;;;;35.13;26.48;;;;;;;27.64;94.84;101315.19;5093202;28;20479;-78
2023/08/18 12:41:38;;;;;;;39.60;32.15;;;;;;;26.44;100.00;101312.44;5093001;28;20089;-77
2023/08/18 12:47:25;;;;;;;36.83;30.38;;;;;;;27.70;96.63;101302.94;5092664;28;20482;-79
2023/08/18 12:53:12;;;;;;;35.15;29.65;;;;;;;27.48;95.34;101303.00;5092534;28;20284;-79
2023/08/18 12:58:58;;;;;;;34.75;27.65;;;;;;;28.61;90.57;101293.88;5077812;28;20416;-78
2023/08/18 13:04:45;;;;;;;37.13;29.80;;;;;;;27.66;93.34;101298.41;5092359;28;20051;-77
2023/08/18 13:10:32;;;;;;;37.47;31.15;;;;;;;25.96;100.00;101288.22;5080166;28;20038;-77
2023/08/18 13:16:19;;;;;;;37.70;31.40;;;;;;;25.61;100.00;101281.50;5092062;28;20371;-78
2023/08/18 13:22:06;;;;;;;35.60;28.75;;;;;;;26.49;100.00;101295.84;5092008;28;20051;-76
2023/08/18 13:27:53;;;;;;;37.78;31.23;;;;;;;26.22;100.00;101291.22;5092420;28;20082;-79
2023/08/18 13:33:40;;;;;;;41.92;31.73;;;;;;;26.94;100.00;101290.38;5092185;28;20051;-76
2023/08/18 13:39:26;;;;;;;41.97;31.77;;;;;;;27.59;99.15;101278.78;5076800;28;20054;-77
2023/08/18 13:41:52;;;;;;;43.07;33.73;;;;;;;27.50;99.25;101266.97;5091164;28;20449;-78
2023/08/18 13:47:38;;;;;;;37.42;29.80;;;;;;;26.94;100.00;101254.69;5092469;28;20299;-78
2023/08/18 13:53:29;;;;;;;42.13;32.70;;;;;;;26.19;100.00;101264.41;5091771;28;20058;-76
2023/08/18 13:59:16;;;;;;;43.33;32.97;;;;;;;25.82;100.00;101249.88;5091922;28;20092;-76
2023/08/18 14:05:06;;;;;;;45.50;30.83;;;;;;;25.59;100.00;101253.63;5091866;28;20078;-79
2023/08/18 14:10:53;;;;;;;48.55;35.92;;;;;;;25.26;100.00;101250.16;5075994;28;20539;-76
2023/08/18 14:16:40;;;;;;;53.13;38.92;;;;;;;25.41;100.00;101249.03;5091379;28;20396;-78
2023/08/18 14:22:27;;;;;;;51.35;37.78;;;;;;;25.41;100.00;101243.56;5078759;28;20047;-76
2023/08/18 14:28:14;;;;;;;51.28;38.50;;;;;;;25.16;100.00;101244.88;5091579;28;20121;-76
2023/08/18 14:37:23;;;;;;;55.22;38.72;;;;;;;25.24;100.00;101242.25;5091204;28;20035;-79
2023/08/18 14:43:10;;;;;;;60.40;40.05;;;;;;;25.15;100.00;101244.03;5094833;28;20113;-80
2023/08/18 14:48:57;;;;;;;61.03;41.60;;;;;;;25.08;100.00;101231.88;5094250;28;20135;-80
2023/08/18 14:54:44;;;;;;;58.67;41.47;;;;;;;25.20;100.00;101224.81;5094661;28;20493;-82
2023/08/18 15:00:33;;;;;;;63.20;42.35;;;;;;;25.33;100.00;101210.28;5079566;28;20273;-78
2023/08/18 15:03:00;;;;;;;64.18;43.72;;;;;;;25.39;100.00;101213.75;5093389;28;20044;-77
2023/08/18 15:08:46;;;;;;;65.22;42.88;;;;;;;25.38;100.00;101203.09;5094534;28;20100;-78
2023/08/18 15:14:36;;;;;;;64.20;44.97;;;;;;;25.49;100.00;101210.81;5093651;28;20047;-77
2023/08/18 15:20:23;;;;;;;65.05;42.08;;;;;;;25.47;100.00;101191.16;5093706;28;20043;-78
2023/08/18 15:26:10;;;;;;;68.55;45.78;;;;;;;25.44;100.00;101185.44;5094172;28;20038;-75
2023/08/18 15:31:57;;;;;;;66.80;45.30;;;;;;;25.48;100.00;101191.94;5078507;28;20281;-75
2023/08/18 15:37:44;;;;;;;63.05;44.03;;;;;;;25.59;100.00;101190.63;5093544;28;20094;-76
2023/08/18 15:43:31;;;;;;;66.65;44.67;;;;;;;25.99;100.00;101188.13;5081079;28;20055;-77
2023/08/18 15:49:18;;;;;;;63.72;42.55;;;;;;;26.37;100.00;101178.47;5093954;28;20073;-78
2023/08/18 15:55:06;;;;;;;64.75;44.70;;;;;;;26.47;100.00;101172.72;5093639;28;20431;-77
2023/08/18 16:00:52;;;;;;;65.07;43.15;;;;;;;26.34;100.00;101173.63;5093459;28;20047;-77
2023/08/18 16:06:40;;;;;;;62.13;41.80;;;;;;;26.06;100.00;101178.38;5093231;28;20289;-77
2023/08/18 16:12:27;;;;;;;60.67;38.55;;;;;;;25.96;100.00;101161.31;5078275;28;20105;-75
2023/08/18 16:18:14;;;;;;;62.42;40.50;;;;;;;25.80;100.00;101171.84;5092847;28;20059;-78
2023/08/18 16:24:02;;;;;;;59.60;39.60;;;;;;;25.55;100.00;101145.78;5080400;28;20323;-77
2023/08/18 16:29:49;;;;;;;59.80;39.75;;;;;;;25.57;100.00;101138.88;5093002;28;20046;-75
2023/08/18 16:35:36;;;;;;;59.58;38.25;;;;;;;25.56;100.00;101139.19;5092824;28;20042;-76
2023/08/18 16:38:03;;;;;;;66.03;38.67;;;;;;;25.61;100.00;101145.34;5091871;28;20052;-78
2023/08/18 16:47:53;;;;;;;57.38;39.67;;;;;;;25.79;100.00;101148.31;5092948;28;20096;-78
2023/08/18 16:53:41;;;;;;;63.20;41.83;;;;;;;25.87;100.00;101140.16;5092927;28;20139;-77
2023/08/18 16:59:32;;;;;;;63.33;41.40;;;;;;;25.80;100.00;101136.22;5092843;28;20428;-77
2023/08/18 17:05:20;;;;;;;63.03;42.55;;;;;;;25.59;100.00;101131.16;5091966;28;20111;-78
2023/08/18 17:11:07;;;;;;;65.93;42.33;;;;;;;25.52;100.00;101128.03;5078277;28;20047;-78
2023/08/18 17:13:32;;;;;;;62.93;41.17;;;;;;;25.48;100.00;101135.25;5091494;28;20052;-78
2023/08/18 17:19:20;;;;;;;60.65;41.42;;;;;;;25.27;100.00;101134.06;5092095;28;20050;-78
2023/08/18 17:25:08;;;;;;;62.50;42.88;;;;;;;25.11;100.00;101130.00;5092271;28;20058;-78
2023/08/18 17:30:55;;;;;;;59.58;41.35;;;;;;;25.06;100.00;101122.69;5092360;28;20051;-76
2023/08/18 17:36:42;;;;;;;59.85;38.80;;;;;;;25.20;100.00;101137.22;5091931;28;20054;-78
2023/08/18 17:42:29;;;;;;;57.70;38.53;;;;;;;25.29;100.00;101129.06;5076821;28;20054;-76
2023/08/18 17:48:16;;;;;;;63.03;39.13;;;;;;;25.27;100.00;101129.38;5091850;28;20265;-76
2023/08/18 17:54:03;;;;;;;61.88;38.72;;;;;;;25.10;100.00;101125.63;5079418;28;20058;-76
2023/08/18 17:59:50;;;;;;;59.50;40.30;;;;;;;24.98;100.00;101120.66;5091964;28;20097;-75
2023/08/18 18:08:59;;;;;;;56.20;38.67;;;;;;;24.79;100.00;101108.97;5091844;28;20039;-76
2023/08/18 18:14:46;;;;;;;57.97;39.70;;;;;;;24.62;100.00;101104.91;5091860;28;20116;-77
2023/08/18 18:20:33;;;;;;;58.17;39.88;;;;;;;24.53;100.00;101103.97;5095289;28;20386;-77
2023/08/18 18:26:20;;;;;;;58.72;40.20;;;;;;;24.32;100.00;101103.53;5094815;28;20047;-76
2023/08/18 18:32:09;;;;;;;58.92;41.53;;;;;;;24.14;100.00;101098.06;5079885;28;20304;-76
2023/08/18 18:37:56;;;;;;;58.47;41.95;;;;;;;23.98;100.00;101102.97;5094771;28;20128;-77
2023/08/18 18:43:43;;;;;;;61.90;41.47;;;;;;;23.82;100.00;101112.50;5082665;28;20051;-76
2023/08/18 18:49:30;;;;;;;63.63;42.92;;;;;;;23.71;100.00;101111.88;5094425;28;20051;-77
2023/08/18 18:55:17;;;;;;;56.70;40.75;;;;;;;23.60;100.00;101108.44;5094610;28;20051;-78
2023/08/18 19:01:05;;;;;;;56.92;40.28;;;;;;;23.47;100.00;101118.16;5094381;28;20831;-79
2023/08/18 19:06:51;;;;;;;56.25;38.97;;;;;;;23.37;100.00;101137.38;5094504;28;20165;-83
2023/08/18 19:12:38;;;;;;;58.60;41.80;;;;;;;23.12;100.00;101130.31;5080105;28;20442;-78
2023/08/18 19:18:26;;;;;;;55.90;37.88;;;;;;;22.94;100.00;101122.91;5093977;28;20097;-78
2023/08/18 19:24:13;;;;;;;84.25;43.20;;;;;;;22.75;100.00;101116.53;5083412;28;20047;-78
2023/08/18 19:30:02;;;;;;;65.40;41.53;;;;;;;22.60;100.00;101116.69;5094869;28;20069;-76
2023/08/18 19:35:50;;;;;;;60.67;41.30;;;;;;;22.45;100.00;101110.28;5093696;28;20046;-77
2023/08/18 19:41:37;;;;;;;59.70;40.78;;;;;;;22.43;100.00;101106.22;5093268;28;20075;-75
2023/08/18 19:47:25;;;;;;;57.58;37.47;;;;;;;22.35;100.00;101102.19;5093618;28;20332;-76
2023/08/18 19:53:12;;;;;;;58.55;41.80;;;;;;;22.29;100.00;101108.78;5093754;28;20529;-77
2023/08/18 19:58:59;;;;;;;52.72;38.03;;;;;;;22.28;100.00;101114.53;5093367;28;20277;-77
2023/08/18 20:04:46;;;;;;;53.17;39.10;;;;;;;22.24;100.00;101111.53;5093914;28;20062;-77
2023/08/18 20:10:33;;;;;;;53.92;39.05;;;;;;;22.21;100.00;101107.47;5093361;28;20273;-76
2023/08/18 20:16:20;;;;;;;58.38;41.03;;;;;;;22.24;100.00;101104.19;5092923;28;20281;-76
2023/08/18 20:22:07;;;;;;;59.90;41.55;;;;;;;22.27;100.00;101102.81;5093708;28;20043;-76
2023/08/18 20:27:54;;;;;;;55.40;38.10;;;;;;;22.12;100.00;101111.91;5093564;28;20373;-78
2023/08/18 20:33:41;;;;;;;52.05;37.83;;;;;;;22.02;100.00;101103.00;5079505;28;20047;-75
2023/08/18 20:39:28;;;;;;;54.38;39.17;;;;;;;21.96;100.00;101092.09;5091657;28;20058;-74
2023/08/18 20:45:14;;;;;;;55.70;41.55;;;;;;;21.99;100.00;101089.94;5081002;28;20269;-76
2023/08/18 20:51:01;;;;;;;54.95;40.25;;;;;;;21.98;100.00;101086.41;5092517;28;20358;-75
2023/08/18 20:56:48;;;;;;;53.63;40.67;;;;;;;21.93;100.00;101094.59;5092410;28;20355;-76
2023/08/18 21:02:35;;;;;;;50.55;38.28;;;;;;;21.91;100.00;101089.44;5092693;28;20050;-76
2023/08/18 21:08:22;;;;;;;52.45;38.70;;;;;;;21.85;100.00;101085.13;5092525;28;20139;-79
2023/08/18 21:14:09;;;;;;;49.72;37.35;;;;;;;21.76;100.00;101081.38;5077944;28;20059;-80
2023/08/18 21:19:56;;;;;;;52.45;39.58;;;;;;;21.78;100.00;101079.19;5092588;28;20054;-81
2023/08/18 21:25:44;;;;;;;55.40;39.55;;;;;;;21.78;100.00;101081.09;5080045;28;20808;-80
2023/08/18 21:31:31;;;;;;;51.45;39.83;;;;;;;21.75;100.00;101085.19;5092106;28;20067;-80
2023/08/18 21:37:17;;;;;;;49.80;38.42;;;;;;;21.67;100.00;101065.91;5091768;28;20333;-80
2023/08/18 21:43:04;;;;;;;45.63;37.70;;;;;;;21.71;100.00;101069.72;5091778;28;20285;-79
2023/08/18 21:48:51;;;;;;;49.53;36.13;;;;;;;21.72;100.00;101065.91;5091692;28;20272;-79
2023/08/18 21:54:37;;;;;;;49.08;37.42;;;;;;;21.70;100.00;101070.81;5080753;28;20069;-78
2023/08/18 22:00:25;;;;;;;52.88;38.90;;;;;;;21.61;100.00;101046.09;5095258;28;20278;-79
2023/08/18 22:06:12;;;;;;;51.17;37.50;;;;;;;21.67;100.00;101063.19;5083075;28;20059;-78
2023/08/18 22:11:58;;;;;;;45.65;35.67;;;;;;;21.64;100.00;101062.66;5095210;28;20042;-77
2023/08/18 22:17:48;;;;;;;48.00;35.75;;;;;;;21.60;100.00;101055.34;5094858;28;20393;-79
2023/08/18 22:23:37;;;;;;;44.78;37.38;;;;;;;21.58;100.00;101052.91;5095368;28;20102;-79
2023/08/18 22:29:24;;;;;;;45.63;35.72;;;;;;;21.52;100.00;101042.34;5095234;28;20051;-79
2023/08/18 22:35:11;;;;;;;45.55;35.33;;;;;;;21.52;100.00;101048.59;5080141;28;20057;-81
2023/08/18 22:41:01;;;;;;;41.72;33.97;;;;;;;21.51;100.00;101049.69;5094871;28;20411;-81
2023/08/18 22:47:16;;;;;;;42.88;34.33;;;;;;;21.49;100.00;101038.28;5083175;28;20074;-80
2023/08/18 22:53:04;;;;;;;42.28;32.38;;;;;;;21.47;100.00;101032.31;5079172;28;20047;-80
2023/08/18 22:58:52;;;;;;;42.38;34.22;;;;;;;21.48;100.00;101028.50;5094847;28;20067;-79
2023/08/18 23:04:39;;;;;;;41.42;32.28;;;;;;;21.48;100.00;101030.41;5081760;28;20116;-79